Aérodrome :
LOGIN :

S'inscrire | Disclaimer

   EN    FR    IT 

 










Légende :    VFR   VFR Marginal   IFR   IFR Intensif   IFR Très Intensif
Visi : 
Plafond : 
>= 8 km
>= 3000ft
5 à 8 km
1000 à 3000 ft
1500m à 5 km
500 à 1000 ft
800 à 1500m
200 à 500 ft
< 800m
< 200 ft
Symboles :   Orages  Brouillard  Fortes neiges  Fortes précipitations  Vent > 20 kt
SIGMETs :   Divers  Orages  Givrage  Turbulence  Onde Orograph.  Cendres Volcan.






- Altitude de l'aérodrome : 1299 ft


EDTY - Adolf Würth

DERNIER METAR :
  • 201120Z 05005KT 6000 OVC002 01/01 Q1015

METARs EXPIRÉS :
  • 201050Z 05004KT 5000 BR OVC002 01/01 Q1016
  • 201020Z VRB03KT 4900 BR OVC003 00/00 Q1016
  • 200950Z VRB03KT 4700 BR OVC003 00/00 Q1016
  • 200920Z 06003KT 3600 BR BKN043 M00/M00 Q1016
  • 200850Z 05003KT 1200 1000W R10/1500D BR FEW001 OVC004 M00/M00 Q1017

TAF TAF EDTY
Valide du 20 à 12h jusqu'au 20 à 21h UTC


201100Z 2012/2021 04004KT 6000 OVC002
TEMPO 2012/2021 BKN008
PROB30
TEMPO 2012/2014 4500 BR



MET'MAP, la Météo Aéronautique d'un coup d'oeil ! - Copyright ORBIFLY Décembre 2007 - Disclaimer

ORBIFLY MET'MAP TEAM :

Programmation & Développement : Alexandra Zaïnal
Conception & Développement : Baudouin d'Aumeries
Co-Programmation & Développement : Marc-Olivier Méhu
Soutien technique & logistique : Manuel Goepfert

Contact : metmap@orbifly.com




SOURCES & CREDITS :

   NOAA